sensor_id;sensor_type;location;lat;lon;timestamp;P1;durP1;ratioP1;P2;durP2;ratioP2
9117;SDS011;4594;50.994;7.126;2022-07-23T00:01:32;14.20;;;10.77;;
9117;SDS011;4594;50.994;7.126;2022-07-23T00:03:57;14.53;;;11.23;;
9117;SDS011;4594;50.994;7.126;2022-07-23T00:06:24;20.03;;;11.40;;
9117;SDS011;4594;50.994;7.126;2022-07-23T00:08:50;15.53;;;10.40;;
9117;SDS011;4594;50.994;7.126;2022-07-23T00:11:16;13.67;;;10.53;;
9117;SDS011;4594;50.994;7.126;2022-07-23T00:13:43;12.63;;;10.57;;
9117;SDS011;4594;50.994;7.126;2022-07-23T00:16:09;14.33;;;10.37;;
9117;SDS011;4594;50.994;7.126;2022-07-23T00:18:34;14.37;;;10.93;;
9117;SDS011;4594;50.994;7.126;2022-07-23T00:21:00;15.13;;;11.33;;
9117;SDS011;4594;50.994;7.126;2022-07-23T00:23:26;16.00;;;11.90;;
9117;SDS011;4594;50.994;7.126;2022-07-23T00:25:53;14.30;;;10.50;;
9117;SDS011;4594;50.994;7.126;2022-07-23T00:28:20;13.87;;;10.73;;
9117;SDS011;4594;50.994;7.126;2022-07-23T00:30:46;15.37;;;11.13;;
9117;SDS011;4594;50.994;7.126;2022-07-23T00:33:12;15.97;;;9.80;;
9117;SDS011;4594;50.994;7.126;2022-07-23T00:35:39;12.43;;;10.00;;
9117;SDS011;4594;50.994;7.126;2022-07-23T00:38:06;17.03;;;10.73;;
9117;SDS011;4594;50.994;7.126;2022-07-23T00:40:34;14.73;;;9.90;;
9117;SDS011;4594;50.994;7.126;2022-07-23T00:43:01;16.23;;;10.27;;
9117;SDS011;4594;50.994;7.126;2022-07-23T00:45:29;14.83;;;9.67;;
9117;SDS011;4594;50.994;7.126;2022-07-23T00:47:55;13.67;;;9.90;;
9117;SDS011;4594;50.994;7.126;2022-07-23T00:50:21;12.07;;;9.33;;
9117;SDS011;4594;50.994;7.126;2022-07-23T00:52:47;17.47;;;10.77;;
9117;SDS011;4594;50.994;7.126;2022-07-23T00:55:13;14.30;;;9.90;;
9117;SDS011;4594;50.994;7.126;2022-07-23T00:57:40;11.77;;;9.30;;
9117;SDS011;4594;50.994;7.126;2022-07-23T01:00:08;10.30;;;8.70;;
9117;SDS011;4594;50.994;7.126;2022-07-23T01:02:37;10.33;;;8.20;;
9117;SDS011;4594;50.994;7.126;2022-07-23T01:05:04;10.93;;;8.23;;
9117;SDS011;4594;50.994;7.126;2022-07-23T01:07:31;12.50;;;8.27;;
9117;SDS011;4594;50.994;7.126;2022-07-23T01:09:58;8.80;;;7.53;;
9117;SDS011;4594;50.994;7.126;2022-07-23T01:12:25;12.07;;;8.23;;
9117;SDS011;4594;50.994;7.126;2022-07-23T01:14:54;11.30;;;8.37;;
9117;SDS011;4594;50.994;7.126;2022-07-23T01:17:25;12.60;;;7.80;;
9117;SDS011;4594;50.994;7.126;2022-07-23T01:19:51;9.53;;;8.17;;
9117;SDS011;4594;50.994;7.126;2022-07-23T01:22:18;10.20;;;7.93;;
9117;SDS011;4594;50.994;7.126;2022-07-23T01:24:45;14.70;;;9.03;;
9117;SDS011;4594;50.994;7.126;2022-07-23T01:27:11;10.43;;;8.30;;
9117;SDS011;4594;50.994;7.126;2022-07-23T01:29:42;13.77;;;9.50;;
9117;SDS011;4594;50.994;7.126;2022-07-23T01:32:08;13.03;;;9.20;;
9117;SDS011;4594;50.994;7.126;2022-07-23T01:34:33;11.53;;;8.77;;
9117;SDS011;4594;50.994;7.126;2022-07-23T01:36:59;14.67;;;9.40;;
9117;SDS011;4594;50.994;7.126;2022-07-23T01:39:25;12.87;;;9.23;;
9117;SDS011;4594;50.994;7.126;2022-07-23T01:41:50;13.87;;;9.53;;
9117;SDS011;4594;50.994;7.126;2022-07-23T01:44:16;16.23;;;9.60;;
9117;SDS011;4594;50.994;7.126;2022-07-23T01:46:42;14.40;;;9.80;;
9117;SDS011;4594;50.994;7.126;2022-07-23T01:49:07;15.43;;;9.93;;
9117;SDS011;4594;50.994;7.126;2022-07-23T01:51:33;14.23;;;9.57;;
9117;SDS011;4594;50.994;7.126;2022-07-23T01:53:59;14.30;;;9.93;;
9117;SDS011;4594;50.994;7.126;2022-07-23T01:56:25;13.43;;;9.17;;
9117;SDS011;4594;50.994;7.126;2022-07-23T01:58:50;11.57;;;8.67;;
9117;SDS011;4594;50.994;7.126;2022-07-23T02:01:16;26.50;;;10.10;;
9117;SDS011;4594;50.994;7.126;2022-07-23T02:03:42;13.43;;;9.27;;
9117;SDS011;4594;50.994;7.126;2022-07-23T02:06:07;12.70;;;8.90;;
9117;SDS011;4594;50.994;7.126;2022-07-23T02:08:33;13.50;;;9.97;;
9117;SDS011;4594;50.994;7.126;2022-07-23T02:10:59;14.07;;;9.30;;
9117;SDS011;4594;50.994;7.126;2022-07-23T02:13:24;13.33;;;9.00;;
9117;SDS011;4594;50.994;7.126;2022-07-23T02:15:51;14.20;;;9.23;;
9117;SDS011;4594;50.994;7.126;2022-07-23T02:18:17;10.53;;;7.83;;
9117;SDS011;4594;50.994;7.126;2022-07-23T02:20:42;12.43;;;8.90;;
9117;SDS011;4594;50.994;7.126;2022-07-23T02:23:09;11.70;;;8.97;;
9117;SDS011;4594;50.994;7.126;2022-07-23T02:25:35;15.63;;;9.83;;
9117;SDS011;4594;50.994;7.126;2022-07-23T02:28:01;13.20;;;9.10;;
9117;SDS011;4594;50.994;7.126;2022-07-23T02:30:28;14.47;;;9.90;;
9117;SDS011;4594;50.994;7.126;2022-07-23T02:32:53;15.00;;;10.07;;
9117;SDS011;4594;50.994;7.126;2022-07-23T02:35:19;12.40;;;9.73;;
9117;SDS011;4594;50.994;7.126;2022-07-23T02:37:45;12.83;;;8.90;;
9117;SDS011;4594;50.994;7.126;2022-07-23T02:40:11;15.20;;;9.73;;
9117;SDS011;4594;50.994;7.126;2022-07-23T02:42:37;16.50;;;10.47;;
9117;SDS011;4594;50.994;7.126;2022-07-23T02:45:02;14.80;;;10.17;;
9117;SDS011;4594;50.994;7.126;2022-07-23T02:47:29;15.63;;;10.73;;
9117;SDS011;4594;50.994;7.126;2022-07-23T02:49:56;12.37;;;9.23;;
9117;SDS011;4594;50.994;7.126;2022-07-23T02:52:22;15.67;;;9.83;;
9117;SDS011;4594;50.994;7.126;2022-07-23T02:54:48;12.63;;;9.47;;
9117;SDS011;4594;50.994;7.126;2022-07-23T02:57:13;14.03;;;9.87;;
9117;SDS011;4594;50.994;7.126;2022-07-23T02:59:39;15.20;;;9.37;;
9117;SDS011;4594;50.994;7.126;2022-07-23T03:02:05;13.13;;;9.60;;
9117;SDS011;4594;50.994;7.126;2022-07-23T03:04:30;15.20;;;9.57;;
9117;SDS011;4594;50.994;7.126;2022-07-23T03:06:56;14.23;;;9.87;;
9117;SDS011;4594;50.994;7.126;2022-07-23T03:09:21;13.47;;;9.40;;
9117;SDS011;4594;50.994;7.126;2022-07-23T03:11:47;14.13;;;9.63;;
9117;SDS011;4594;50.994;7.126;2022-07-23T03:14:13;13.77;;;10.03;;
9117;SDS011;4594;50.994;7.126;2022-07-23T03:16:41;13.03;;;9.10;;
9117;SDS011;4594;50.994;7.126;2022-07-23T03:19:07;14.07;;;10.07;;
9117;SDS011;4594;50.994;7.126;2022-07-23T03:21:32;12.20;;;9.40;;
9117;SDS011;4594;50.994;7.126;2022-07-23T03:23:59;12.10;;;9.07;;
9117;SDS011;4594;50.994;7.126;2022-07-23T03:26:25;13.83;;;9.20;;
9117;SDS011;4594;50.994;7.126;2022-07-23T03:28:51;12.63;;;9.10;;
9117;SDS011;4594;50.994;7.126;2022-07-23T03:31:17;15.03;;;10.27;;
9117;SDS011;4594;50.994;7.126;2022-07-23T03:33:43;11.93;;;9.30;;
9117;SDS011;4594;50.994;7.126;2022-07-23T03:36:08;14.23;;;9.63;;
9117;SDS011;4594;50.994;7.126;2022-07-23T03:38:34;13.47;;;9.70;;
9117;SDS011;4594;50.994;7.126;2022-07-23T03:41:00;14.17;;;9.47;;
9117;SDS011;4594;50.994;7.126;2022-07-23T03:43:26;14.17;;;9.90;;
9117;SDS011;4594;50.994;7.126;2022-07-23T03:45:51;14.23;;;10.37;;
9117;SDS011;4594;50.994;7.126;2022-07-23T03:48:17;15.77;;;10.60;;
9117;SDS011;4594;50.994;7.126;2022-07-23T03:50:43;13.03;;;9.70;;
9117;SDS011;4594;50.994;7.126;2022-07-23T03:53:08;16.83;;;10.07;;
9117;SDS011;4594;50.994;7.126;2022-07-23T03:55:34;15.80;;;10.13;;
9117;SDS011;4594;50.994;7.126;2022-07-23T03:58:00;13.33;;;9.67;;
9117;SDS011;4594;50.994;7.126;2022-07-23T04:00:26;13.70;;;9.90;;
9117;SDS011;4594;50.994;7.126;2022-07-23T04:02:52;11.87;;;9.40;;
9117;SDS011;4594;50.994;7.126;2022-07-23T04:05:18;12.87;;;9.13;;
9117;SDS011;4594;50.994;7.126;2022-07-23T04:07:43;13.27;;;9.30;;
9117;SDS011;4594;50.994;7.126;2022-07-23T04:10:09;15.03;;;9.97;;
9117;SDS011;4594;50.994;7.126;2022-07-23T04:12:35;12.70;;;9.13;;
9117;SDS011;4594;50.994;7.126;2022-07-23T04:15:00;13.47;;;10.17;;
9117;SDS011;4594;50.994;7.126;2022-07-23T04:17:26;12.50;;;9.63;;
9117;SDS011;4594;50.994;7.126;2022-07-23T04:19:53;16.83;;;9.83;;
9117;SDS011;4594;50.994;7.126;2022-07-23T04:22:18;12.20;;;9.40;;
9117;SDS011;4594;50.994;7.126;2022-07-23T04:24:44;10.23;;;8.43;;
9117;SDS011;4594;50.994;7.126;2022-07-23T04:27:09;13.97;;;8.97;;
9117;SDS011;4594;50.994;7.126;2022-07-23T04:29:35;14.00;;;9.37;;
9117;SDS011;4594;50.994;7.126;2022-07-23T04:32:01;12.33;;;9.43;;
9117;SDS011;4594;50.994;7.126;2022-07-23T04:34:27;12.33;;;9.37;;
9117;SDS011;4594;50.994;7.126;2022-07-23T04:36:53;14.03;;;9.93;;
9117;SDS011;4594;50.994;7.126;2022-07-23T04:39:18;14.40;;;10.00;;
9117;SDS011;4594;50.994;7.126;2022-07-23T04:41:44;9.97;;;8.43;;
9117;SDS011;4594;50.994;7.126;2022-07-23T04:44:11;14.30;;;10.43;;
9117;SDS011;4594;50.994;7.126;2022-07-23T04:46:37;14.93;;;10.17;;
9117;SDS011;4594;50.994;7.126;2022-07-23T04:49:03;12.00;;;9.10;;
9117;SDS011;4594;50.994;7.126;2022-07-23T04:51:29;17.33;;;10.30;;
9117;SDS011;4594;50.994;7.126;2022-07-23T04:53:54;12.77;;;9.20;;
9117;SDS011;4594;50.994;7.126;2022-07-23T04:56:20;14.53;;;9.63;;
9117;SDS011;4594;50.994;7.126;2022-07-23T04:58:46;13.93;;;9.17;;
9117;SDS011;4594;50.994;7.126;2022-07-23T05:01:12;12.10;;;9.17;;
9117;SDS011;4594;50.994;7.126;2022-07-23T05:03:38;16.20;;;10.20;;
9117;SDS011;4594;50.994;7.126;2022-07-23T05:06:03;12.30;;;9.27;;
9117;SDS011;4594;50.994;7.126;2022-07-23T05:08:29;14.80;;;9.33;;
9117;SDS011;4594;50.994;7.126;2022-07-23T05:10:55;13.43;;;9.30;;
9117;SDS011;4594;50.994;7.126;2022-07-23T05:13:20;14.20;;;9.90;;
9117;SDS011;4594;50.994;7.126;2022-07-23T05:15:47;16.73;;;9.97;;
9117;SDS011;4594;50.994;7.126;2022-07-23T05:18:13;16.43;;;10.67;;
9117;SDS011;4594;50.994;7.126;2022-07-23T05:20:39;11.57;;;9.10;;
9117;SDS011;4594;50.994;7.126;2022-07-23T05:23:05;14.20;;;10.47;;
9117;SDS011;4594;50.994;7.126;2022-07-23T05:25:32;16.07;;;10.00;;
9117;SDS011;4594;50.994;7.126;2022-07-23T05:27:57;13.57;;;9.57;;
9117;SDS011;4594;50.994;7.126;2022-07-23T05:30:24;13.23;;;8.80;;
9117;SDS011;4594;50.994;7.126;2022-07-23T05:32:50;11.27;;;8.17;;
9117;SDS011;4594;50.994;7.126;2022-07-23T05:35:15;19.10;;;9.37;;
9117;SDS011;4594;50.994;7.126;2022-07-23T05:37:41;9.83;;;8.07;;
9117;SDS011;4594;50.994;7.126;2022-07-23T05:40:08;8.40;;;7.50;;
9117;SDS011;4594;50.994;7.126;2022-07-23T05:42:35;8.00;;;7.20;;
9117;SDS011;4594;50.994;7.126;2022-07-23T05:45:03;10.20;;;7.43;;
9117;SDS011;4594;50.994;7.126;2022-07-23T05:47:39;9.27;;;7.53;;
9117;SDS011;4594;50.994;7.126;2022-07-23T05:50:11;7.50;;;6.60;;
9117;SDS011;4594;50.994;7.126;2022-07-23T05:52:38;8.73;;;7.20;;
9117;SDS011;4594;50.994;7.126;2022-07-23T05:55:05;7.73;;;6.67;;
9117;SDS011;4594;50.994;7.126;2022-07-23T05:57:32;10.43;;;7.13;;
9117;SDS011;4594;50.994;7.126;2022-07-23T05:59:58;8.33;;;6.70;;
9117;SDS011;4594;50.994;7.126;2022-07-23T06:02:23;7.93;;;6.77;;
9117;SDS011;4594;50.994;7.126;2022-07-23T06:04:49;8.57;;;6.90;;
9117;SDS011;4594;50.994;7.126;2022-07-23T06:07:15;8.57;;;6.37;;
9117;SDS011;4594;50.994;7.126;2022-07-23T06:09:40;11.03;;;6.83;;
9117;SDS011;4594;50.994;7.126;2022-07-23T06:12:06;6.73;;;5.80;;
9117;SDS011;4594;50.994;7.126;2022-07-23T06:14:32;6.50;;;5.63;;
9117;SDS011;4594;50.994;7.126;2022-07-23T06:16:58;7.30;;;5.80;;
9117;SDS011;4594;50.994;7.126;2022-07-23T06:19:24;7.50;;;5.83;;
9117;SDS011;4594;50.994;7.126;2022-07-23T06:21:50;7.13;;;5.63;;
9117;SDS011;4594;50.994;7.126;2022-07-23T06:24:16;7.37;;;5.77;;
9117;SDS011;4594;50.994;7.126;2022-07-23T06:26:42;5.07;;;4.57;;
9117;SDS011;4594;50.994;7.126;2022-07-23T06:29:07;6.63;;;4.90;;
9117;SDS011;4594;50.994;7.126;2022-07-23T06:31:33;7.33;;;5.03;;
9117;SDS011;4594;50.994;7.126;2022-07-23T06:33:59;6.70;;;5.27;;
9117;SDS011;4594;50.994;7.126;2022-07-23T06:36:25;7.30;;;5.27;;
9117;SDS011;4594;50.994;7.126;2022-07-23T06:38:50;5.63;;;5.03;;
9117;SDS011;4594;50.994;7.126;2022-07-23T06:41:16;6.10;;;5.17;;
9117;SDS011;4594;50.994;7.126;2022-07-23T06:43:42;5.13;;;4.63;;
9117;SDS011;4594;50.994;7.126;2022-07-23T06:46:07;5.30;;;4.30;;
9117;SDS011;4594;50.994;7.126;2022-07-23T06:48:33;4.93;;;4.43;;
9117;SDS011;4594;50.994;7.126;2022-07-23T06:51:00;5.30;;;4.40;;
9117;SDS011;4594;50.994;7.126;2022-07-23T06:53:27;4.53;;;4.13;;
9117;SDS011;4594;50.994;7.126;2022-07-23T06:55:53;4.70;;;4.30;;
9117;SDS011;4594;50.994;7.126;2022-07-23T06:58:19;4.67;;;4.23;;
9117;SDS011;4594;50.994;7.126;2022-07-23T07:00:45;4.60;;;3.97;;
9117;SDS011;4594;50.994;7.126;2022-07-23T07:03:11;4.33;;;3.73;;
9117;SDS011;4594;50.994;7.126;2022-07-23T07:05:37;4.50;;;3.67;;
9117;SDS011;4594;50.994;7.126;2022-07-23T07:08:04;4.67;;;3.87;;
9117;SDS011;4594;50.994;7.126;2022-07-23T07:10:31;4.50;;;3.83;;
9117;SDS011;4594;50.994;7.126;2022-07-23T07:12:57;4.57;;;3.57;;
9117;SDS011;4594;50.994;7.126;2022-07-23T07:15:23;4.83;;;4.13;;
9117;SDS011;4594;50.994;7.126;2022-07-23T07:17:48;5.03;;;3.57;;
9117;SDS011;4594;50.994;7.126;2022-07-23T07:20:14;4.80;;;3.77;;
9117;SDS011;4594;50.994;7.126;2022-07-23T07:22:40;6.10;;;3.90;;
9117;SDS011;4594;50.994;7.126;2022-07-23T07:25:06;6.87;;;3.63;;
9117;SDS011;4594;50.994;7.126;2022-07-23T07:27:32;3.90;;;3.13;;
9117;SDS011;4594;50.994;7.126;2022-07-23T07:29:58;3.33;;;3.07;;
9117;SDS011;4594;50.994;7.126;2022-07-23T07:32:24;3.37;;;3.07;;
9117;SDS011;4594;50.994;7.126;2022-07-23T07:34:50;3.67;;;3.10;;
9117;SDS011;4594;50.994;7.126;2022-07-23T07:37:16;2.73;;;2.53;;
9117;SDS011;4594;50.994;7.126;2022-07-23T07:39:42;7.30;;;3.33;;
9117;SDS011;4594;50.994;7.126;2022-07-23T07:42:07;3.13;;;2.93;;
9117;SDS011;4594;50.994;7.126;2022-07-23T07:44:33;3.07;;;2.87;;
9117;SDS011;4594;50.994;7.126;2022-07-23T07:46:59;3.67;;;2.97;;
9117;SDS011;4594;50.994;7.126;2022-07-23T07:49:24;2.57;;;2.40;;
9117;SDS011;4594;50.994;7.126;2022-07-23T07:51:50;2.80;;;2.60;;
9117;SDS011;4594;50.994;7.126;2022-07-23T07:54:16;2.77;;;2.57;;
9117;SDS011;4594;50.994;7.126;2022-07-23T07:56:41;4.27;;;2.90;;
9117;SDS011;4594;50.994;7.126;2022-07-23T07:59:07;4.30;;;2.90;;
9117;SDS011;4594;50.994;7.126;2022-07-23T08:01:33;3.37;;;3.07;;
9117;SDS011;4594;50.994;7.126;2022-07-23T08:03:58;3.07;;;2.87;;
9117;SDS011;4594;50.994;7.126;2022-07-23T08:06:24;3.00;;;2.80;;
9117;SDS011;4594;50.994;7.126;2022-07-23T08:08:50;2.60;;;2.50;;
9117;SDS011;4594;50.994;7.126;2022-07-23T08:11:15;3.50;;;3.23;;
9117;SDS011;4594;50.994;7.126;2022-07-23T08:13:41;2.77;;;2.57;;
9117;SDS011;4594;50.994;7.126;2022-07-23T08:16:09;3.07;;;2.87;;
9117;SDS011;4594;50.994;7.126;2022-07-23T08:18:35;3.47;;;3.13;;
9117;SDS011;4594;50.994;7.126;2022-07-23T08:21:01;3.00;;;2.80;;
9117;SDS011;4594;50.994;7.126;2022-07-23T08:23:29;3.23;;;2.70;;
9117;SDS011;4594;50.994;7.126;2022-07-23T08:25:54;5.07;;;3.50;;
9117;SDS011;4594;50.994;7.126;2022-07-23T08:28:21;4.73;;;3.23;;
9117;SDS011;4594;50.994;7.126;2022-07-23T08:30:47;4.63;;;2.70;;
9117;SDS011;4594;50.994;7.126;2022-07-23T08:33:14;3.33;;;3.03;;
9117;SDS011;4594;50.994;7.126;2022-07-23T08:35:42;3.60;;;2.43;;
9117;SDS011;4594;50.994;7.126;2022-07-23T08:38:13;3.20;;;2.67;;
9117;SDS011;4594;50.994;7.126;2022-07-23T08:40:45;5.60;;;2.87;;
9117;SDS011;4594;50.994;7.126;2022-07-23T08:43:25;3.40;;;2.90;;
9117;SDS011;4594;50.994;7.126;2022-07-23T08:45:56;3.53;;;2.77;;
9117;SDS011;4594;50.994;7.126;2022-07-23T08:48:25;2.90;;;2.70;;
9117;SDS011;4594;50.994;7.126;2022-07-23T08:50:54;3.17;;;2.10;;
9117;SDS011;4594;50.994;7.126;2022-07-23T08:53:23;2.63;;;2.47;;
9117;SDS011;4594;50.994;7.126;2022-07-23T08:55:51;4.83;;;2.50;;
9117;SDS011;4594;50.994;7.126;2022-07-23T08:58:26;3.20;;;2.53;;
9117;SDS011;4594;50.994;7.126;2022-07-23T09:00:52;2.03;;;1.93;;
9117;SDS011;4594;50.994;7.126;2022-07-23T09:03:19;2.70;;;2.20;;
9117;SDS011;4594;50.994;7.126;2022-07-23T09:05:51;2.13;;;1.80;;
9117;SDS011;4594;50.994;7.126;2022-07-23T09:08:20;2.20;;;2.10;;
9117;SDS011;4594;50.994;7.126;2022-07-23T09:10:59;3.23;;;2.20;;
9117;SDS011;4594;50.994;7.126;2022-07-23T09:13:28;2.07;;;1.97;;
9117;SDS011;4594;50.994;7.126;2022-07-23T09:16:08;2.43;;;2.23;;
9117;SDS011;4594;50.994;7.126;2022-07-23T09:21:33;1.80;;;1.70;;
9117;SDS011;4594;50.994;7.126;2022-07-23T09:24:05;3.10;;;2.00;;
9117;SDS011;4594;50.994;7.126;2022-07-23T09:26:42;3.53;;;1.80;;
9117;SDS011;4594;50.994;7.126;2022-07-23T09:29:17;2.65;;;2.10;;
9117;SDS011;4594;50.994;7.126;2022-07-23T09:34:19;2.03;;;1.92;;
9117;SDS011;4594;50.994;7.126;2022-07-23T09:36:52;1.73;;;1.63;;
9117;SDS011;4594;50.994;7.126;2022-07-23T09:39:30;3.22;;;1.85;;
9117;SDS011;4594;50.994;7.126;2022-07-23T09:42:14;1.95;;;1.83;;
9117;SDS011;4594;50.994;7.126;2022-07-23T09:44:45;2.20;;;1.90;;
9117;SDS011;4594;50.994;7.126;2022-07-23T09:47:17;1.70;;;1.60;;
9117;SDS011;4594;50.994;7.126;2022-07-23T09:52:35;2.63;;;2.00;;
9117;SDS011;4594;50.994;7.126;2022-07-23T09:55:13;2.85;;;1.90;;
9117;SDS011;4594;50.994;7.126;2022-07-23T09:57:41;1.80;;;1.73;;
9117;SDS011;4594;50.994;7.126;2022-07-23T10:00:11;3.38;;;1.88;;
9117;SDS011;4594;50.994;7.126;2022-07-23T10:02:38;3.00;;;2.00;;
9117;SDS011;4594;50.994;7.126;2022-07-23T10:05:06;1.48;;;1.48;;
9117;SDS011;4594;50.994;7.126;2022-07-23T10:07:33;1.60;;;1.50;;
9117;SDS011;4594;50.994;7.126;2022-07-23T10:10:04;1.80;;;1.70;;
9117;SDS011;4594;50.994;7.126;2022-07-23T10:12:32;2.35;;;1.80;;
9117;SDS011;4594;50.994;7.126;2022-07-23T10:15:10;1.70;;;1.60;;
9117;SDS011;4594;50.994;7.126;2022-07-23T10:17:36;1.88;;;1.75;;
9117;SDS011;4594;50.994;7.126;2022-07-23T10:20:02;1.65;;;1.55;;
9117;SDS011;4594;50.994;7.126;2022-07-23T10:22:36;3.25;;;1.48;;
9117;SDS011;4594;50.994;7.126;2022-07-23T10:28:02;1.73;;;1.63;;
9117;SDS011;4594;50.994;7.126;2022-07-23T10:31:01;3.05;;;1.83;;
9117;SDS011;4594;50.994;7.126;2022-07-23T10:34:08;6.63;;;1.77;;
9117;SDS011;4594;50.994;7.126;2022-07-23T10:37:07;1.10;;;1.10;;
9117;SDS011;4594;50.994;7.126;2022-07-23T10:40:12;1.60;;;1.50;;
9117;SDS011;4594;50.994;7.126;2022-07-23T10:42:51;1.52;;;1.42;;
9117;SDS011;4594;50.994;7.126;2022-07-23T10:45:53;1.48;;;1.38;;
9117;SDS011;4594;50.994;7.126;2022-07-23T10:48:13;1.55;;;1.55;;
9117;SDS011;4594;50.994;7.126;2022-07-23T10:51:05;1.45;;;1.40;;
9117;SDS011;4594;50.994;7.126;2022-07-23T10:56:16;2.20;;;1.60;;
9117;SDS011;4594;50.994;7.126;2022-07-23T10:59:23;1.20;;;1.20;;
9117;SDS011;4594;50.994;7.126;2022-07-23T11:01:50;1.48;;;1.33;;
9117;SDS011;4594;50.994;7.126;2022-07-23T11:04:16;1.88;;;1.25;;
9117;SDS011;4594;50.994;7.126;2022-07-23T11:17:25;1.30;;;1.25;;
9117;SDS011;4594;50.994;7.126;2022-07-23T11:22:41;1.10;;;1.10;;
9117;SDS011;4594;50.994;7.126;2022-07-23T11:27:55;1.20;;;1.20;;
9117;SDS011;4594;50.994;7.126;2022-07-23T11:35:32;1.27;;;1.27;;
9117;SDS011;4594;50.994;7.126;2022-07-23T11:38:05;1.50;;;1.50;;
9117;SDS011;4594;50.994;7.126;2022-07-23T11:40:37;1.20;;;1.20;;
9117;SDS011;4594;50.994;7.126;2022-07-23T11:43:03;1.70;;;1.50;;
9117;SDS011;4594;50.994;7.126;2022-07-23T11:48:06;1.20;;;1.20;;
9117;SDS011;4594;50.994;7.126;2022-07-23T11:50:35;1.40;;;1.40;;
9117;SDS011;4594;50.994;7.126;2022-07-23T11:53:02;1.77;;;1.70;;
9117;SDS011;4594;50.994;7.126;2022-07-23T11:55:28;1.57;;;1.47;;
9117;SDS011;4594;50.994;7.126;2022-07-23T11:57:54;1.40;;;1.40;;
9117;SDS011;4594;50.994;7.126;2022-07-23T12:00:22;1.70;;;1.60;;
9117;SDS011;4594;50.994;7.126;2022-07-23T12:02:55;1.50;;;1.40;;
9117;SDS011;4594;50.994;7.126;2022-07-23T12:05:26;1.70;;;1.70;;
9117;SDS011;4594;50.994;7.126;2022-07-23T12:07:58;1.47;;;1.47;;
9117;SDS011;4594;50.994;7.126;2022-07-23T12:10:29;1.50;;;1.40;;
9117;SDS011;4594;50.994;7.126;2022-07-23T12:13:07;2.10;;;2.00;;
9117;SDS011;4594;50.994;7.126;2022-07-23T12:15:36;1.87;;;1.80;;
9117;SDS011;4594;50.994;7.126;2022-07-23T12:18:09;2.07;;;2.00;;
9117;SDS011;4594;50.994;7.126;2022-07-23T12:20:40;1.83;;;1.73;;
9117;SDS011;4594;50.994;7.126;2022-07-23T12:23:09;2.07;;;1.97;;
9117;SDS011;4594;50.994;7.126;2022-07-23T12:25:39;2.93;;;2.13;;
9117;SDS011;4594;50.994;7.126;2022-07-23T12:28:11;2.10;;;2.00;;
9117;SDS011;4594;50.994;7.126;2022-07-23T12:30:47;2.20;;;2.10;;
9117;SDS011;4594;50.994;7.126;2022-07-23T12:33:18;2.20;;;2.10;;
9117;SDS011;4594;50.994;7.126;2022-07-23T12:35:52;2.40;;;2.30;;
9117;SDS011;4594;50.994;7.126;2022-07-23T12:38:22;2.30;;;2.20;;
9117;SDS011;4594;50.994;7.126;2022-07-23T12:40:54;3.17;;;2.33;;
9117;SDS011;4594;50.994;7.126;2022-07-23T12:43:36;2.23;;;2.13;;
9117;SDS011;4594;50.994;7.126;2022-07-23T12:46:11;2.73;;;2.53;;
9117;SDS011;4594;50.994;7.126;2022-07-23T12:51:18;2.33;;;2.23;;
9117;SDS011;4594;50.994;7.126;2022-07-23T12:56:19;2.83;;;2.63;;
9117;SDS011;4594;50.994;7.126;2022-07-23T12:58:47;3.13;;;2.70;;
9117;SDS011;4594;50.994;7.126;2022-07-23T13:03:54;3.03;;;2.83;;
9117;SDS011;4594;50.994;7.126;2022-07-23T13:06:45;4.00;;;2.83;;
9117;SDS011;4594;50.994;7.126;2022-07-23T13:11:54;3.13;;;2.93;;
9117;SDS011;4594;50.994;7.126;2022-07-23T13:14:21;3.20;;;3.00;;
9117;SDS011;4594;50.994;7.126;2022-07-23T13:16:49;3.27;;;3.00;;
9117;SDS011;4594;50.994;7.126;2022-07-23T13:19:16;5.97;;;3.63;;
9117;SDS011;4594;50.994;7.126;2022-07-23T13:21:42;3.77;;;3.47;;
9117;SDS011;4594;50.994;7.126;2022-07-23T13:24:09;3.47;;;3.17;;
9117;SDS011;4594;50.994;7.126;2022-07-23T13:26:36;4.67;;;3.13;;
9117;SDS011;4594;50.994;7.126;2022-07-23T13:29:02;3.27;;;2.87;;
9117;SDS011;4594;50.994;7.126;2022-07-23T13:31:29;3.43;;;3.13;;
9117;SDS011;4594;50.994;7.126;2022-07-23T13:33:55;3.43;;;3.13;;
9117;SDS011;4594;50.994;7.126;2022-07-23T13:36:21;3.10;;;2.97;;
9117;SDS011;4594;50.994;7.126;2022-07-23T13:38:46;3.20;;;2.90;;
9117;SDS011;4594;50.994;7.126;2022-07-23T13:41:12;3.33;;;3.10;;
9117;SDS011;4594;50.994;7.126;2022-07-23T13:43:38;3.93;;;2.93;;
9117;SDS011;4594;50.994;7.126;2022-07-23T13:46:03;3.27;;;2.87;;
9117;SDS011;4594;50.994;7.126;2022-07-23T13:48:29;3.27;;;3.07;;
9117;SDS011;4594;50.994;7.126;2022-07-23T13:50:55;2.93;;;2.70;;
9117;SDS011;4594;50.994;7.126;2022-07-23T13:53:22;3.53;;;3.13;;
9117;SDS011;4594;50.994;7.126;2022-07-23T13:55:49;3.07;;;2.87;;
9117;SDS011;4594;50.994;7.126;2022-07-23T13:58:17;3.13;;;2.80;;
9117;SDS011;4594;50.994;7.126;2022-07-23T14:00:48;2.60;;;2.40;;
9117;SDS011;4594;50.994;7.126;2022-07-23T14:03:16;2.80;;;2.60;;
9117;SDS011;4594;50.994;7.126;2022-07-23T14:05:44;2.93;;;2.63;;
9117;SDS011;4594;50.994;7.126;2022-07-23T14:08:10;3.43;;;2.90;;
9117;SDS011;4594;50.994;7.126;2022-07-23T14:10:36;2.50;;;2.40;;
9117;SDS011;4594;50.994;7.126;2022-07-23T14:13:02;2.43;;;2.30;;
9117;SDS011;4594;50.994;7.126;2022-07-23T14:15:29;2.80;;;2.60;;
9117;SDS011;4594;50.994;7.126;2022-07-23T14:17:56;2.57;;;2.43;;
9117;SDS011;4594;50.994;7.126;2022-07-23T14:20:23;2.67;;;2.53;;
9117;SDS011;4594;50.994;7.126;2022-07-23T14:22:49;2.57;;;2.40;;
9117;SDS011;4594;50.994;7.126;2022-07-23T14:25:16;2.07;;;1.97;;
9117;SDS011;4594;50.994;7.126;2022-07-23T14:27:42;2.77;;;2.57;;
9117;SDS011;4594;50.994;7.126;2022-07-23T14:30:10;2.47;;;2.30;;
9117;SDS011;4594;50.994;7.126;2022-07-23T14:32:37;2.83;;;2.60;;
9117;SDS011;4594;50.994;7.126;2022-07-23T14:35:04;3.73;;;2.40;;
9117;SDS011;4594;50.994;7.126;2022-07-23T14:37:31;2.90;;;2.67;;
9117;SDS011;4594;50.994;7.126;2022-07-23T14:39:57;4.53;;;2.57;;
9117;SDS011;4594;50.994;7.126;2022-07-23T14:42:24;2.90;;;2.63;;
9117;SDS011;4594;50.994;7.126;2022-07-23T14:44:49;2.60;;;2.40;;
9117;SDS011;4594;50.994;7.126;2022-07-23T14:47:15;5.23;;;2.80;;
9117;SDS011;4594;50.994;7.126;2022-07-23T14:49:41;3.03;;;2.50;;
9117;SDS011;4594;50.994;7.126;2022-07-23T14:52:07;2.77;;;2.50;;
9117;SDS011;4594;50.994;7.126;2022-07-23T14:54:33;3.73;;;2.40;;
9117;SDS011;4594;50.994;7.126;2022-07-23T14:56:59;2.53;;;2.30;;
9117;SDS011;4594;50.994;7.126;2022-07-23T14:59:27;2.30;;;2.20;;
9117;SDS011;4594;50.994;7.126;2022-07-23T15:01:53;2.80;;;2.60;;
9117;SDS011;4594;50.994;7.126;2022-07-23T15:04:19;4.23;;;2.70;;
9117;SDS011;4594;50.994;7.126;2022-07-23T15:06:45;2.43;;;2.23;;
9117;SDS011;4594;50.994;7.126;2022-07-23T15:09:12;3.07;;;2.00;;
9117;SDS011;4594;50.994;7.126;2022-07-23T15:11:39;1.80;;;1.70;;
9117;SDS011;4594;50.994;7.126;2022-07-23T15:14:05;5.03;;;2.67;;
9117;SDS011;4594;50.994;7.126;2022-07-23T15:16:32;3.47;;;1.97;;
9117;SDS011;4594;50.994;7.126;2022-07-23T15:18:59;3.20;;;2.27;;
9117;SDS011;4594;50.994;7.126;2022-07-23T15:21:26;2.73;;;2.07;;
9117;SDS011;4594;50.994;7.126;2022-07-23T15:23:54;4.23;;;2.13;;
9117;SDS011;4594;50.994;7.126;2022-07-23T15:26:26;2.63;;;2.40;;
9117;SDS011;4594;50.994;7.126;2022-07-23T15:28:54;4.00;;;2.40;;
9117;SDS011;4594;50.994;7.126;2022-07-23T15:31:21;2.37;;;2.20;;
9117;SDS011;4594;50.994;7.126;2022-07-23T15:33:48;5.97;;;2.47;;
9117;SDS011;4594;50.994;7.126;2022-07-23T15:36:14;2.03;;;1.90;;
9117;SDS011;4594;50.994;7.126;2022-07-23T15:38:43;2.70;;;2.40;;
9117;SDS011;4594;50.994;7.126;2022-07-23T15:41:09;3.57;;;3.27;;
9117;SDS011;4594;50.994;7.126;2022-07-23T15:43:34;2.93;;;2.73;;
9117;SDS011;4594;50.994;7.126;2022-07-23T15:46:00;3.00;;;2.50;;
9117;SDS011;4594;50.994;7.126;2022-07-23T15:48:26;2.20;;;2.00;;
9117;SDS011;4594;50.994;7.126;2022-07-23T15:50:52;2.73;;;2.53;;
9117;SDS011;4594;50.994;7.126;2022-07-23T15:53:18;7.57;;;5.63;;
9117;SDS011;4594;50.994;7.126;2022-07-23T15:55:44;8.03;;;5.20;;
9117;SDS011;4594;50.994;7.126;2022-07-23T15:58:11;3.80;;;3.50;;
9117;SDS011;4594;50.994;7.126;2022-07-23T16:00:37;3.00;;;2.80;;